sensor_id;sensor_type;location;lat;lon;timestamp;P1;durP1;ratioP1;P2;durP2;ratioP2
16504;SDS011;8365;51.030;4.696;2022-10-15T00:00:12;14.73;;;13.33;;
16504;SDS011;8365;51.030;4.696;2022-10-15T00:02:43;15.70;;;13.93;;
16504;SDS011;8365;51.030;4.696;2022-10-15T00:05:14;18.60;;;15.27;;
16504;SDS011;8365;51.030;4.696;2022-10-15T00:07:44;16.53;;;14.67;;
16504;SDS011;8365;51.030;4.696;2022-10-15T00:10:15;19.00;;;15.90;;
16504;SDS011;8365;51.030;4.696;2022-10-15T00:12:46;18.73;;;15.70;;
16504;SDS011;8365;51.030;4.696;2022-10-15T00:15:16;17.93;;;15.97;;
16504;SDS011;8365;51.030;4.696;2022-10-15T00:17:47;21.03;;;17.33;;
16504;SDS011;8365;51.030;4.696;2022-10-15T00:20:19;19.97;;;17.27;;
16504;SDS011;8365;51.030;4.696;2022-10-15T00:22:50;22.43;;;18.70;;
16504;SDS011;8365;51.030;4.696;2022-10-15T00:25:20;21.57;;;19.27;;
16504;SDS011;8365;51.030;4.696;2022-10-15T00:27:50;26.90;;;20.00;;
16504;SDS011;8365;51.030;4.696;2022-10-15T00:30:21;22.50;;;20.10;;
16504;SDS011;8365;51.030;4.696;2022-10-15T00:32:51;25.13;;;21.00;;
16504;SDS011;8365;51.030;4.696;2022-10-15T00:35:22;25.93;;;21.07;;
16504;SDS011;8365;51.030;4.696;2022-10-15T00:37:52;25.00;;;21.70;;
16504;SDS011;8365;51.030;4.696;2022-10-15T00:40:22;27.67;;;22.60;;
16504;SDS011;8365;51.030;4.696;2022-10-15T00:42:53;25.00;;;22.33;;
16504;SDS011;8365;51.030;4.696;2022-10-15T00:45:23;27.03;;;22.83;;
16504;SDS011;8365;51.030;4.696;2022-10-15T00:47:54;29.70;;;22.80;;
16504;SDS011;8365;51.030;4.696;2022-10-15T00:50:24;29.63;;;22.47;;
16504;SDS011;8365;51.030;4.696;2022-10-15T00:53:06;27.17;;;23.40;;
16504;SDS011;8365;51.030;4.696;2022-10-15T00:55:39;26.47;;;22.60;;
16504;SDS011;8365;51.030;4.696;2022-10-15T00:58:12;27.97;;;23.77;;
16504;SDS011;8365;51.030;4.696;2022-10-15T01:00:45;29.33;;;23.90;;
16504;SDS011;8365;51.030;4.696;2022-10-15T01:03:18;29.83;;;24.43;;
16504;SDS011;8365;51.030;4.696;2022-10-15T01:05:50;29.60;;;24.60;;
16504;SDS011;8365;51.030;4.696;2022-10-15T01:08:21;27.60;;;24.60;;
16504;SDS011;8365;51.030;4.696;2022-10-15T01:14:02;29.00;;;24.80;;
16504;SDS011;8365;51.030;4.696;2022-10-15T01:22:14;30.60;;;26.47;;
16504;SDS011;8365;51.030;4.696;2022-10-15T01:30:10;32.47;;;27.37;;
16504;SDS011;8365;51.030;4.696;2022-10-15T01:32:47;33.73;;;27.63;;
16504;SDS011;8365;51.030;4.696;2022-10-15T01:41:10;34.07;;;27.00;;
16504;SDS011;8365;51.030;4.696;2022-10-15T01:46:20;31.83;;;27.63;;
16504;SDS011;8365;51.030;4.696;2022-10-15T01:49:12;32.73;;;26.73;;
16504;SDS011;8365;51.030;4.696;2022-10-15T01:51:50;32.53;;;26.90;;
16504;SDS011;8365;51.030;4.696;2022-10-15T01:54:25;32.97;;;28.13;;
16504;SDS011;8365;51.030;4.696;2022-10-15T01:56:56;34.47;;;27.57;;
16504;SDS011;8365;51.030;4.696;2022-10-15T01:59:31;35.00;;;29.50;;
16504;SDS011;8365;51.030;4.696;2022-10-15T02:02:02;34.70;;;28.47;;
16504;SDS011;8365;51.030;4.696;2022-10-15T02:04:33;34.33;;;29.80;;
16504;SDS011;8365;51.030;4.696;2022-10-15T02:15:33;33.67;;;27.83;;
16504;SDS011;8365;51.030;4.696;2022-10-15T02:18:26;31.77;;;27.90;;
16504;SDS011;8365;51.030;4.696;2022-10-15T02:20:58;36.00;;;28.60;;
16504;SDS011;8365;51.030;4.696;2022-10-15T02:23:46;36.23;;;27.17;;
16504;SDS011;8365;51.030;4.696;2022-10-15T02:26:23;32.90;;;27.60;;
16504;SDS011;8365;51.030;4.696;2022-10-15T02:28:58;31.00;;;27.50;;
16504;SDS011;8365;51.030;4.696;2022-10-15T02:31:31;32.83;;;26.90;;
16504;SDS011;8365;51.030;4.696;2022-10-15T02:34:05;32.40;;;27.73;;
16504;SDS011;8365;51.030;4.696;2022-10-15T02:36:37;33.27;;;28.20;;
16504;SDS011;8365;51.030;4.696;2022-10-15T02:39:10;36.13;;;27.77;;
16504;SDS011;8365;51.030;4.696;2022-10-15T02:41:43;35.57;;;28.43;;
16504;SDS011;8365;51.030;4.696;2022-10-15T02:44:15;36.03;;;29.00;;
16504;SDS011;8365;51.030;4.696;2022-10-15T02:46:48;35.83;;;29.23;;
16504;SDS011;8365;51.030;4.696;2022-10-15T02:49:18;38.20;;;29.90;;
16504;SDS011;8365;51.030;4.696;2022-10-15T02:51:48;35.10;;;28.77;;
16504;SDS011;8365;51.030;4.696;2022-10-15T02:54:19;34.30;;;26.93;;
16504;SDS011;8365;51.030;4.696;2022-10-15T02:56:49;37.57;;;28.43;;
16504;SDS011;8365;51.030;4.696;2022-10-15T02:59:20;34.67;;;27.87;;
16504;SDS011;8365;51.030;4.696;2022-10-15T03:01:51;36.40;;;28.23;;
16504;SDS011;8365;51.030;4.696;2022-10-15T03:04:21;38.07;;;30.33;;
16504;SDS011;8365;51.030;4.696;2022-10-15T03:06:51;37.53;;;29.50;;
16504;SDS011;8365;51.030;4.696;2022-10-15T03:09:22;37.03;;;28.43;;
16504;SDS011;8365;51.030;4.696;2022-10-15T03:11:53;37.40;;;30.03;;
16504;SDS011;8365;51.030;4.696;2022-10-15T03:14:23;40.27;;;27.93;;
16504;SDS011;8365;51.030;4.696;2022-10-15T03:16:54;34.60;;;27.23;;
16504;SDS011;8365;51.030;4.696;2022-10-15T03:19:24;36.03;;;27.30;;
16504;SDS011;8365;51.030;4.696;2022-10-15T03:21:55;37.57;;;28.20;;
16504;SDS011;8365;51.030;4.696;2022-10-15T03:24:25;34.50;;;27.30;;
16504;SDS011;8365;51.030;4.696;2022-10-15T03:26:56;31.90;;;26.10;;
16504;SDS011;8365;51.030;4.696;2022-10-15T03:29:26;33.53;;;26.07;;
16504;SDS011;8365;51.030;4.696;2022-10-15T03:31:56;37.17;;;26.97;;
16504;SDS011;8365;51.030;4.696;2022-10-15T03:34:29;31.80;;;25.47;;
16504;SDS011;8365;51.030;4.696;2022-10-15T03:36:59;36.03;;;27.37;;
16504;SDS011;8365;51.030;4.696;2022-10-15T03:39:30;34.40;;;26.23;;
16504;SDS011;8365;51.030;4.696;2022-10-15T03:42:03;36.30;;;27.60;;
16504;SDS011;8365;51.030;4.696;2022-10-15T03:44:36;34.27;;;25.10;;
16504;SDS011;8365;51.030;4.696;2022-10-15T03:47:06;35.50;;;26.00;;
16504;SDS011;8365;51.030;4.696;2022-10-15T03:49:37;37.50;;;27.63;;
16504;SDS011;8365;51.030;4.696;2022-10-15T03:52:07;35.80;;;27.17;;
16504;SDS011;8365;51.030;4.696;2022-10-15T03:54:38;35.90;;;24.83;;
16504;SDS011;8365;51.030;4.696;2022-10-15T03:57:08;31.47;;;24.03;;
16504;SDS011;8365;51.030;4.696;2022-10-15T03:59:41;38.10;;;25.93;;
16504;SDS011;8365;51.030;4.696;2022-10-15T04:02:11;32.87;;;25.37;;
16504;SDS011;8365;51.030;4.696;2022-10-15T04:04:42;31.90;;;24.57;;
16504;SDS011;8365;51.030;4.696;2022-10-15T04:07:12;31.10;;;24.33;;
16504;SDS011;8365;51.030;4.696;2022-10-15T04:09:43;32.00;;;23.73;;
16504;SDS011;8365;51.030;4.696;2022-10-15T04:12:13;33.80;;;23.50;;
16504;SDS011;8365;51.030;4.696;2022-10-15T04:14:44;33.47;;;24.00;;
16504;SDS011;8365;51.030;4.696;2022-10-15T04:17:15;31.97;;;23.40;;
16504;SDS011;8365;51.030;4.696;2022-10-15T04:19:45;34.03;;;24.87;;
16504;SDS011;8365;51.030;4.696;2022-10-15T04:22:18;30.50;;;23.63;;
16504;SDS011;8365;51.030;4.696;2022-10-15T04:24:49;28.80;;;22.47;;
16504;SDS011;8365;51.030;4.696;2022-10-15T04:27:20;30.87;;;22.47;;
16504;SDS011;8365;51.030;4.696;2022-10-15T04:29:50;30.70;;;23.50;;
16504;SDS011;8365;51.030;4.696;2022-10-15T04:32:20;31.83;;;23.17;;
16504;SDS011;8365;51.030;4.696;2022-10-15T04:34:51;29.87;;;22.13;;
16504;SDS011;8365;51.030;4.696;2022-10-15T04:37:21;32.30;;;24.10;;
16504;SDS011;8365;51.030;4.696;2022-10-15T04:39:52;30.17;;;24.07;;
16504;SDS011;8365;51.030;4.696;2022-10-15T04:42:22;31.90;;;23.43;;
16504;SDS011;8365;51.030;4.696;2022-10-15T04:44:53;29.27;;;22.23;;
16504;SDS011;8365;51.030;4.696;2022-10-15T04:47:23;30.47;;;21.87;;
16504;SDS011;8365;51.030;4.696;2022-10-15T04:49:53;30.70;;;22.00;;
16504;SDS011;8365;51.030;4.696;2022-10-15T04:52:24;31.80;;;22.87;;
16504;SDS011;8365;51.030;4.696;2022-10-15T04:54:54;30.17;;;21.73;;
16504;SDS011;8365;51.030;4.696;2022-10-15T04:57:25;32.37;;;24.03;;
16504;SDS011;8365;51.030;4.696;2022-10-15T04:59:55;32.67;;;23.83;;
16504;SDS011;8365;51.030;4.696;2022-10-15T05:02:26;33.80;;;23.37;;
16504;SDS011;8365;51.030;4.696;2022-10-15T05:04:57;33.27;;;23.67;;
16504;SDS011;8365;51.030;4.696;2022-10-15T05:07:27;34.17;;;22.87;;
16504;SDS011;8365;51.030;4.696;2022-10-15T05:09:58;31.73;;;22.70;;
16504;SDS011;8365;51.030;4.696;2022-10-15T05:12:28;32.07;;;22.00;;
16504;SDS011;8365;51.030;4.696;2022-10-15T05:14:59;29.67;;;22.53;;
16504;SDS011;8365;51.030;4.696;2022-10-15T05:17:29;31.10;;;22.20;;
16504;SDS011;8365;51.030;4.696;2022-10-15T05:20:00;28.57;;;20.13;;
16504;SDS011;8365;51.030;4.696;2022-10-15T05:22:30;25.37;;;20.17;;
16504;SDS011;8365;51.030;4.696;2022-10-15T05:25:03;30.60;;;23.13;;
16504;SDS011;8365;51.030;4.696;2022-10-15T05:27:34;29.23;;;21.53;;
16504;SDS011;8365;51.030;4.696;2022-10-15T05:30:05;34.53;;;22.83;;
16504;SDS011;8365;51.030;4.696;2022-10-15T05:32:35;31.00;;;22.03;;
16504;SDS011;8365;51.030;4.696;2022-10-15T05:35:06;30.50;;;20.83;;
16504;SDS011;8365;51.030;4.696;2022-10-15T05:37:37;29.90;;;21.17;;
16504;SDS011;8365;51.030;4.696;2022-10-15T05:40:08;29.97;;;21.13;;
16504;SDS011;8365;51.030;4.696;2022-10-15T05:42:39;29.10;;;22.87;;
16504;SDS011;8365;51.030;4.696;2022-10-15T05:45:09;31.70;;;21.60;;
16504;SDS011;8365;51.030;4.696;2022-10-15T05:47:40;33.33;;;22.43;;
16504;SDS011;8365;51.030;4.696;2022-10-15T05:50:10;28.20;;;20.27;;
16504;SDS011;8365;51.030;4.696;2022-10-15T05:52:41;29.17;;;20.53;;
16504;SDS011;8365;51.030;4.696;2022-10-15T05:55:11;40.67;;;36.57;;
16504;SDS011;8365;51.030;4.696;2022-10-15T05:57:42;31.53;;;22.73;;
16504;SDS011;8365;51.030;4.696;2022-10-15T06:00:12;29.67;;;19.73;;
16504;SDS011;8365;51.030;4.696;2022-10-15T06:02:43;27.23;;;20.97;;
16504;SDS011;8365;51.030;4.696;2022-10-15T06:05:14;25.53;;;19.60;;
16504;SDS011;8365;51.030;4.696;2022-10-15T06:07:44;25.27;;;18.97;;
16504;SDS011;8365;51.030;4.696;2022-10-15T06:10:14;26.50;;;19.97;;
16504;SDS011;8365;51.030;4.696;2022-10-15T06:12:48;30.10;;;22.73;;
16504;SDS011;8365;51.030;4.696;2022-10-15T06:15:20;25.83;;;20.83;;
16504;SDS011;8365;51.030;4.696;2022-10-15T06:17:53;24.80;;;20.13;;
16504;SDS011;8365;51.030;4.696;2022-10-15T06:20:25;26.13;;;20.30;;
16504;SDS011;8365;51.030;4.696;2022-10-15T06:22:59;31.13;;;24.13;;
16504;SDS011;8365;51.030;4.696;2022-10-15T06:25:30;25.93;;;17.83;;
16504;SDS011;8365;51.030;4.696;2022-10-15T06:28:01;23.40;;;16.83;;
16504;SDS011;8365;51.030;4.696;2022-10-15T06:30:33;23.23;;;16.90;;
16504;SDS011;8365;51.030;4.696;2022-10-15T06:33:03;23.60;;;17.13;;
16504;SDS011;8365;51.030;4.696;2022-10-15T06:35:34;25.00;;;18.00;;
16504;SDS011;8365;51.030;4.696;2022-10-15T06:38:05;22.10;;;16.37;;
16504;SDS011;8365;51.030;4.696;2022-10-15T06:40:38;24.40;;;17.80;;
16504;SDS011;8365;51.030;4.696;2022-10-15T06:43:09;27.00;;;18.83;;
16504;SDS011;8365;51.030;4.696;2022-10-15T06:45:40;24.03;;;19.37;;
16504;SDS011;8365;51.030;4.696;2022-10-15T06:48:11;20.83;;;15.80;;
16504;SDS011;8365;51.030;4.696;2022-10-15T06:50:41;22.83;;;18.00;;
16504;SDS011;8365;51.030;4.696;2022-10-15T06:53:12;19.37;;;13.87;;
16504;SDS011;8365;51.030;4.696;2022-10-15T06:55:42;17.10;;;13.30;;
16504;SDS011;8365;51.030;4.696;2022-10-15T06:58:13;22.70;;;14.00;;
16504;SDS011;8365;51.030;4.696;2022-10-15T07:00:43;16.57;;;13.10;;
16504;SDS011;8365;51.030;4.696;2022-10-15T07:03:14;16.07;;;12.13;;
16504;SDS011;8365;51.030;4.696;2022-10-15T07:05:44;19.27;;;15.93;;
16504;SDS011;8365;51.030;4.696;2022-10-15T07:08:14;23.33;;;20.93;;
16504;SDS011;8365;51.030;4.696;2022-10-15T07:10:45;16.97;;;12.17;;
16504;SDS011;8365;51.030;4.696;2022-10-15T07:13:16;14.07;;;12.27;;
16504;SDS011;8365;51.030;4.696;2022-10-15T07:15:46;12.90;;;9.23;;
16504;SDS011;8365;51.030;4.696;2022-10-15T07:18:18;11.57;;;9.23;;
16504;SDS011;8365;51.030;4.696;2022-10-15T07:20:49;9.70;;;8.43;;
16504;SDS011;8365;51.030;4.696;2022-10-15T07:23:19;11.10;;;9.30;;
16504;SDS011;8365;51.030;4.696;2022-10-15T07:25:50;13.63;;;9.13;;
16504;SDS011;8365;51.030;4.696;2022-10-15T07:28:20;11.00;;;8.07;;
16504;SDS011;8365;51.030;4.696;2022-10-15T07:30:51;9.60;;;7.70;;
16504;SDS011;8365;51.030;4.696;2022-10-15T07:33:22;8.80;;;7.37;;
16504;SDS011;8365;51.030;4.696;2022-10-15T07:35:52;6.93;;;6.23;;
16504;SDS011;8365;51.030;4.696;2022-10-15T07:38:23;8.10;;;6.43;;
16504;SDS011;8365;51.030;4.696;2022-10-15T07:40:56;7.47;;;6.13;;
16504;SDS011;8365;51.030;4.696;2022-10-15T07:43:27;7.17;;;6.43;;
16504;SDS011;8365;51.030;4.696;2022-10-15T07:45:58;8.97;;;8.17;;
16504;SDS011;8365;51.030;4.696;2022-10-15T07:48:28;7.83;;;6.70;;
16504;SDS011;8365;51.030;4.696;2022-10-15T07:51:03;6.27;;;5.67;;
16504;SDS011;8365;51.030;4.696;2022-10-15T07:53:35;7.23;;;6.53;;
16504;SDS011;8365;51.030;4.696;2022-10-15T07:56:06;7.07;;;6.23;;
16504;SDS011;8365;51.030;4.696;2022-10-15T07:58:39;9.07;;;8.27;;
16504;SDS011;8365;51.030;4.696;2022-10-15T08:01:10;7.70;;;5.33;;
16504;SDS011;8365;51.030;4.696;2022-10-15T08:03:41;5.70;;;5.20;;
16504;SDS011;8365;51.030;4.696;2022-10-15T08:06:11;5.73;;;4.57;;
16504;SDS011;8365;51.030;4.696;2022-10-15T08:08:42;9.60;;;8.80;;
16504;SDS011;8365;51.030;4.696;2022-10-15T08:11:13;4.70;;;4.30;;
16504;SDS011;8365;51.030;4.696;2022-10-15T08:13:45;9.83;;;8.83;;
16504;SDS011;8365;51.030;4.696;2022-10-15T08:16:17;7.67;;;7.07;;
16504;SDS011;8365;51.030;4.696;2022-10-15T08:18:49;5.87;;;5.33;;
16504;SDS011;8365;51.030;4.696;2022-10-15T08:21:19;4.10;;;3.50;;
16504;SDS011;8365;51.030;4.696;2022-10-15T08:23:49;5.50;;;5.10;;
16504;SDS011;8365;51.030;4.696;2022-10-15T08:26:20;5.30;;;4.90;;
16504;SDS011;8365;51.030;4.696;2022-10-15T08:28:51;5.77;;;5.37;;
16504;SDS011;8365;51.030;4.696;2022-10-15T08:31:24;4.60;;;4.07;;
16504;SDS011;8365;51.030;4.696;2022-10-15T08:33:54;3.60;;;3.30;;
16504;SDS011;8365;51.030;4.696;2022-10-15T08:36:25;4.23;;;3.83;;
16504;SDS011;8365;51.030;4.696;2022-10-15T08:38:55;3.67;;;3.27;;
16504;SDS011;8365;51.030;4.696;2022-10-15T08:41:37;5.57;;;3.50;;
16504;SDS011;8365;51.030;4.696;2022-10-15T08:47:10;4.00;;;3.70;;
16504;SDS011;8365;51.030;4.696;2022-10-15T08:49:49;3.07;;;2.87;;
16504;SDS011;8365;51.030;4.696;2022-10-15T08:52:47;3.17;;;2.87;;
16504;SDS011;8365;51.030;4.696;2022-10-15T08:55:18;2.97;;;2.77;;
16504;SDS011;8365;51.030;4.696;2022-10-15T09:00:44;3.80;;;2.63;;
16504;SDS011;8365;51.030;4.696;2022-10-15T09:06:02;3.77;;;2.17;;
16504;SDS011;8365;51.030;4.696;2022-10-15T09:08:39;2.30;;;2.10;;
16504;SDS011;8365;51.030;4.696;2022-10-15T09:14:14;2.70;;;2.27;;
16504;SDS011;8365;51.030;4.696;2022-10-15T09:16:48;4.20;;;2.10;;
16504;SDS011;8365;51.030;4.696;2022-10-15T09:19:22;2.00;;;1.90;;
16504;SDS011;8365;51.030;4.696;2022-10-15T09:21:55;2.40;;;1.57;;
16504;SDS011;8365;51.030;4.696;2022-10-15T09:24:28;2.00;;;1.80;;
16504;SDS011;8365;51.030;4.696;2022-10-15T09:27:02;2.40;;;1.50;;
16504;SDS011;8365;51.030;4.696;2022-10-15T09:29:57;1.40;;;1.30;;
16504;SDS011;8365;51.030;4.696;2022-10-15T09:32:50;3.00;;;1.70;;
16504;SDS011;8365;51.030;4.696;2022-10-15T09:35:42;1.47;;;1.30;;
16504;SDS011;8365;51.030;4.696;2022-10-15T09:44:21;1.10;;;1.00;;
16504;SDS011;8365;51.030;4.696;2022-10-15T09:46:53;2.00;;;1.30;;
16504;SDS011;8365;51.030;4.696;2022-10-15T09:49:25;1.43;;;1.33;;
16504;SDS011;8365;51.030;4.696;2022-10-15T09:52:00;1.77;;;1.50;;
16504;SDS011;8365;51.030;4.696;2022-10-15T09:57:08;4.30;;;1.40;;
16504;SDS011;8365;51.030;4.696;2022-10-15T09:59:53;1.37;;;1.27;;
16504;SDS011;8365;51.030;4.696;2022-10-15T10:02:25;1.70;;;1.60;;
16504;SDS011;8365;51.030;4.696;2022-10-15T10:04:57;1.50;;;1.40;;
16504;SDS011;8365;51.030;4.696;2022-10-15T10:07:48;1.50;;;1.40;;
16504;SDS011;8365;51.030;4.696;2022-10-15T10:10:23;1.90;;;1.80;;
16504;SDS011;8365;51.030;4.696;2022-10-15T10:12:56;1.80;;;1.70;;
16504;SDS011;8365;51.030;4.696;2022-10-15T10:18:03;1.70;;;1.60;;
16504;SDS011;8365;51.030;4.696;2022-10-15T10:20:37;4.35;;;1.73;;
16504;SDS011;8365;51.030;4.696;2022-10-15T10:23:22;2.00;;;1.53;;
16504;SDS011;8365;51.030;4.696;2022-10-15T10:26:05;1.83;;;1.70;;
16504;SDS011;8365;51.030;4.696;2022-10-15T10:28:50;1.80;;;1.70;;
16504;SDS011;8365;51.030;4.696;2022-10-15T10:31:29;2.03;;;1.90;;
16504;SDS011;8365;51.030;4.696;2022-10-15T10:34:02;2.10;;;1.90;;
16504;SDS011;8365;51.030;4.696;2022-10-15T10:36:33;4.22;;;2.13;;
16504;SDS011;8365;51.030;4.696;2022-10-15T10:39:09;2.07;;;1.80;;
16504;SDS011;8365;51.030;4.696;2022-10-15T10:41:56;2.10;;;1.80;;
16504;SDS011;8365;51.030;4.696;2022-10-15T10:44:33;1.90;;;1.70;;
16504;SDS011;8365;51.030;4.696;2022-10-15T10:47:18;2.23;;;2.03;;
16504;SDS011;8365;51.030;4.696;2022-10-15T10:49:51;2.00;;;1.80;;
16504;SDS011;8365;51.030;4.696;2022-10-15T10:52:30;1.70;;;1.60;;
16504;SDS011;8365;51.030;4.696;2022-10-15T10:55:20;1.90;;;1.80;;
16504;SDS011;8365;51.030;4.696;2022-10-15T10:57:55;1.48;;;1.38;;
16504;SDS011;8365;51.030;4.696;2022-10-15T11:03:02;2.55;;;1.70;;
16504;SDS011;8365;51.030;4.696;2022-10-15T11:05:33;1.88;;;1.77;;
16504;SDS011;8365;51.030;4.696;2022-10-15T11:08:14;1.70;;;1.60;;
16504;SDS011;8365;51.030;4.696;2022-10-15T11:24:19;1.80;;;1.70;;
16504;SDS011;8365;51.030;4.696;2022-10-15T11:29:49;1.90;;;1.80;;
16504;SDS011;8365;51.030;4.696;2022-10-15T11:35:34;2.90;;;2.10;;
16504;SDS011;8365;51.030;4.696;2022-10-15T11:47:10;2.45;;;1.73;;
16504;SDS011;8365;51.030;4.696;2022-10-15T11:55:53;2.22;;;2.10;;
16504;SDS011;8365;51.030;4.696;2022-10-15T11:58:36;2.13;;;1.92;;
16504;SDS011;8365;51.030;4.696;2022-10-15T12:04:17;1.90;;;1.67;;
16504;SDS011;8365;51.030;4.696;2022-10-15T12:06:56;2.45;;;1.80;;
16504;SDS011;8365;51.030;4.696;2022-10-15T12:09:39;1.90;;;1.67;;
16504;SDS011;8365;51.030;4.696;2022-10-15T12:17:50;2.63;;;1.70;;
16504;SDS011;8365;51.030;4.696;2022-10-15T12:20:23;2.53;;;1.90;;
16504;SDS011;8365;51.030;4.696;2022-10-15T12:22:59;1.80;;;1.70;;
16504;SDS011;8365;51.030;4.696;2022-10-15T12:30:37;3.55;;;1.80;;
16504;SDS011;8365;51.030;4.696;2022-10-15T12:33:22;4.95;;;1.58;;
16504;SDS011;8365;51.030;4.696;2022-10-15T12:35:58;4.00;;;1.70;;
16504;SDS011;8365;51.030;4.696;2022-10-15T12:38:32;1.92;;;1.83;;
16504;SDS011;8365;51.030;4.696;2022-10-15T12:41:09;1.80;;;1.70;;
16504;SDS011;8365;51.030;4.696;2022-10-15T12:43:51;2.58;;;2.00;;
16504;SDS011;8365;51.030;4.696;2022-10-15T12:46:37;2.35;;;2.15;;
16504;SDS011;8365;51.030;4.696;2022-10-15T12:51:59;2.33;;;1.50;;
16504;SDS011;8365;51.030;4.696;2022-10-15T12:54:38;3.90;;;1.85;;
16504;SDS011;8365;51.030;4.696;2022-10-15T13:00:01;0.90;;;0.90;;
16504;SDS011;8365;51.030;4.696;2022-10-15T13:02:52;1.27;;;1.20;;
16504;SDS011;8365;51.030;4.696;2022-10-15T13:05:29;2.47;;;1.40;;
16504;SDS011;8365;51.030;4.696;2022-10-15T13:08:04;0.85;;;0.85;;
16504;SDS011;8365;51.030;4.696;2022-10-15T13:10:45;0.80;;;0.80;;
16504;SDS011;8365;51.030;4.696;2022-10-15T13:13:26;3.08;;;1.05;;
16504;SDS011;8365;51.030;4.696;2022-10-15T13:16:01;0.63;;;0.50;;
16504;SDS011;8365;51.030;4.696;2022-10-15T13:18:38;1.20;;;0.70;;
16504;SDS011;8365;51.030;4.696;2022-10-15T13:21:11;1.60;;;1.00;;
16504;SDS011;8365;51.030;4.696;2022-10-15T13:23:46;0.68;;;0.68;;
16504;SDS011;8365;51.030;4.696;2022-10-15T13:26:20;0.98;;;0.65;;
16504;SDS011;8365;51.030;4.696;2022-10-15T13:28:56;0.90;;;0.70;;
16504;SDS011;8365;51.030;4.696;2022-10-15T13:31:31;1.00;;;0.90;;
16504;SDS011;8365;51.030;4.696;2022-10-15T13:36:50;2.03;;;0.75;;
16504;SDS011;8365;51.030;4.696;2022-10-15T13:39:23;0.95;;;0.93;;
16504;SDS011;8365;51.030;4.696;2022-10-15T13:44:55;3.25;;;1.00;;
16504;SDS011;8365;51.030;4.696;2022-10-15T13:47:48;2.60;;;1.20;;
16504;SDS011;8365;51.030;4.696;2022-10-15T13:55:38;2.22;;;1.10;;
16504;SDS011;8365;51.030;4.696;2022-10-15T13:58:16;1.20;;;0.93;;
16504;SDS011;8365;51.030;4.696;2022-10-15T14:00:59;3.72;;;1.30;;
16504;SDS011;8365;51.030;4.696;2022-10-15T14:03:35;3.50;;;1.40;;
16504;SDS011;8365;51.030;4.696;2022-10-15T14:08:44;2.63;;;1.30;;
16504;SDS011;8365;51.030;4.696;2022-10-15T14:11:16;1.48;;;1.10;;
16504;SDS011;8365;51.030;4.696;2022-10-15T14:13:57;3.10;;;1.20;;
16504;SDS011;8365;51.030;4.696;2022-10-15T14:16:35;1.40;;;1.30;;
16504;SDS011;8365;51.030;4.696;2022-10-15T14:19:14;3.38;;;1.20;;
16504;SDS011;8365;51.030;4.696;2022-10-15T14:21:48;1.52;;;1.30;;
16504;SDS011;8365;51.030;4.696;2022-10-15T14:27:03;4.82;;;1.33;;
16504;SDS011;8365;51.030;4.696;2022-10-15T14:29:35;3.15;;;2.15;;
16504;SDS011;8365;51.030;4.696;2022-10-15T14:32:24;1.63;;;1.25;;
16504;SDS011;8365;51.030;4.696;2022-10-15T14:34:59;2.25;;;1.50;;
16504;SDS011;8365;51.030;4.696;2022-10-15T14:42:42;2.42;;;1.30;;
16504;SDS011;8365;51.030;4.696;2022-10-15T14:47:56;2.25;;;1.30;;
16504;SDS011;8365;51.030;4.696;2022-10-15T14:50:30;1.50;;;1.40;;
16504;SDS011;8365;51.030;4.696;2022-10-15T14:53:05;4.30;;;1.35;;
16504;SDS011;8365;51.030;4.696;2022-10-15T14:55:42;3.78;;;1.23;;
16504;SDS011;8365;51.030;4.696;2022-10-15T14:58:19;2.70;;;1.10;;
16504;SDS011;8365;51.030;4.696;2022-10-15T15:00:55;3.78;;;1.20;;
16504;SDS011;8365;51.030;4.696;2022-10-15T15:03:29;1.65;;;1.55;;
16504;SDS011;8365;51.030;4.696;2022-10-15T15:06:08;2.95;;;1.30;;
16504;SDS011;8365;51.030;4.696;2022-10-15T15:08:38;2.35;;;1.48;;
16504;SDS011;8365;51.030;4.696;2022-10-15T15:11:11;4.60;;;1.75;;
16504;SDS011;8365;51.030;4.696;2022-10-15T15:13:43;2.63;;;1.27;;
16504;SDS011;8365;51.030;4.696;2022-10-15T15:16:15;2.72;;;1.60;;
16504;SDS011;8365;51.030;4.696;2022-10-15T15:18:47;1.90;;;1.70;;
16504;SDS011;8365;51.030;4.696;2022-10-15T15:21:21;3.08;;;1.20;;
16504;SDS011;8365;51.030;4.696;2022-10-15T15:23:52;3.47;;;1.42;;
16504;SDS011;8365;51.030;4.696;2022-10-15T15:26:23;1.60;;;1.50;;
16504;SDS011;8365;51.030;4.696;2022-10-15T15:28:53;3.92;;;1.65;;
16504;SDS011;8365;51.030;4.696;2022-10-15T15:31:24;3.38;;;1.95;;
16504;SDS011;8365;51.030;4.696;2022-10-15T15:33:55;2.10;;;1.90;;
16504;SDS011;8365;51.030;4.696;2022-10-15T15:36:25;3.80;;;1.60;;
16504;SDS011;8365;51.030;4.696;2022-10-15T15:38:56;4.85;;;1.42;;
16504;SDS011;8365;51.030;4.696;2022-10-15T15:41:28;4.20;;;1.52;;
16504;SDS011;8365;51.030;4.696;2022-10-15T15:43:59;3.83;;;1.50;;
16504;SDS011;8365;51.030;4.696;2022-10-15T15:46:30;3.63;;;1.30;;
16504;SDS011;8365;51.030;4.696;2022-10-15T15:49:01;3.55;;;1.40;;
16504;SDS011;8365;51.030;4.696;2022-10-15T15:51:31;3.75;;;1.33;;
16504;SDS011;8365;51.030;4.696;2022-10-15T15:54:02;2.55;;;1.40;;
16504;SDS011;8365;51.030;4.696;2022-10-15T15:56:35;1.77;;;1.40;;
16504;SDS011;8365;51.030;4.696;2022-10-15T15:59:06;3.70;;;1.58;;
16504;SDS011;8365;51.030;4.696;2022-10-15T16:01:36;3.08;;;1.63;;
16504;SDS011;8365;51.030;4.696;2022-10-15T16:04:07;4.80;;;2.00;;
16504;SDS011;8365;51.030;4.696;2022-10-15T16:06:38;3.90;;;1.63;;
16504;SDS011;8365;51.030;4.696;2022-10-15T16:09:08;3.47;;;1.95;;
16504;SDS011;8365;51.030;4.696;2022-10-15T16:11:39;2.05;;;1.33;;
16504;SDS011;8365;51.030;4.696;2022-10-15T16:14:12;2.92;;;1.80;;
16504;SDS011;8365;51.030;4.696;2022-10-15T16:16:42;4.60;;;1.65;;
16504;SDS011;8365;51.030;4.696;2022-10-15T16:19:13;2.92;;;1.60;;
16504;SDS011;8365;51.030;4.696;2022-10-15T16:21:43;3.25;;;1.65;;
16504;SDS011;8365;51.030;4.696;2022-10-15T16:24:13;4.70;;;1.55;;
16504;SDS011;8365;51.030;4.696;2022-10-15T16:26:44;3.15;;;1.45;;
16504;SDS011;8365;51.030;4.696;2022-10-15T16:29:14;2.80;;;1.90;;
16504;SDS011;8365;51.030;4.696;2022-10-15T16:31:45;3.10;;;1.70;;
16504;SDS011;8365;51.030;4.696;2022-10-15T16:34:16;5.07;;;2.30;;
16504;SDS011;8365;51.030;4.696;2022-10-15T16:36:47;4.18;;;2.10;;
16504;SDS011;8365;51.030;4.696;2022-10-15T16:39:18;3.88;;;2.00;;
16504;SDS011;8365;51.030;4.696;2022-10-15T16:41:49;4.10;;;1.92;;
16504;SDS011;8365;51.030;4.696;2022-10-15T16:44:19;3.92;;;1.98;;
16504;SDS011;8365;51.030;4.696;2022-10-15T16:46:49;8.02;;;2.42;;
16504;SDS011;8365;51.030;4.696;2022-10-15T16:49:20;2.95;;;2.08;;
16504;SDS011;8365;51.030;4.696;2022-10-15T16:51:50;3.07;;;2.10;;
16504;SDS011;8365;51.030;4.696;2022-10-15T16:54:23;5.60;;;2.33;;
16504;SDS011;8365;51.030;4.696;2022-10-15T16:56:54;4.23;;;2.13;;
16504;SDS011;8365;51.030;4.696;2022-10-15T16:59:25;4.20;;;2.00;;
16504;SDS011;8365;51.030;4.696;2022-10-15T17:01:55;2.33;;;1.80;;
16504;SDS011;8365;51.030;4.696;2022-10-15T17:04:26;2.73;;;2.30;;
16504;SDS011;8365;51.030;4.696;2022-10-15T17:06:56;4.67;;;2.00;;
16504;SDS011;8365;51.030;4.696;2022-10-15T17:09:27;3.67;;;2.23;;
16504;SDS011;8365;51.030;4.696;2022-10-15T17:11:57;3.40;;;1.90;;
16504;SDS011;8365;51.030;4.696;2022-10-15T17:14:28;5.27;;;3.37;;
16504;SDS011;8365;51.030;4.696;2022-10-15T17:16:58;5.13;;;3.93;;
16504;SDS011;8365;51.030;4.696;2022-10-15T17:19:31;7.53;;;3.90;;
16504;SDS011;8365;51.030;4.696;2022-10-15T17:22:02;5.90;;;3.50;;
16504;SDS011;8365;51.030;4.696;2022-10-15T17:24:32;6.70;;;2.20;;
16504;SDS011;8365;51.030;4.696;2022-10-15T17:27:03;4.13;;;3.20;;
16504;SDS011;8365;51.030;4.696;2022-10-15T17:29:33;3.67;;;3.10;;
16504;SDS011;8365;51.030;4.696;2022-10-15T17:32:04;8.13;;;4.77;;
16504;SDS011;8365;51.030;4.696;2022-10-15T17:34:34;7.27;;;3.77;;
16504;SDS011;8365;51.030;4.696;2022-10-15T17:37:05;4.57;;;2.80;;